Time;durP1;ratioP1;P1;durP2;ratioP2;P2;SDS_P1;SDS_P2;PMS_P1;PMS_P2;Temp;Humidity;BMP_temperature;BMP_pressure;BME280_temperature;BME280_humidity;BME280_pressure;Samples;Min_cycle;Max_cycle;Signal;HPM_P1;HPM_P2
2022/06/11 00:00:35;;;;;;;16.17;5.10;;;20.50;70.90;;;;;;5027495;28;20305;-93
2022/06/11 00:03:02;;;;;;;7.67;3.13;;;20.40;70.60;;;;;;5025812;28;20282;-94
2022/06/11 00:05:30;;;;;;;12.33;4.30;;;20.40;70.60;;;;;;5026740;28;20201;-94
2022/06/11 00:07:59;;;;;;;12.73;4.37;;;20.40;70.70;;;;;;5026089;28;20208;-93
2022/06/11 00:10:28;;;;;;;6.30;2.73;;;20.40;71.00;;;;;;5021955;28;20201;-94
2022/06/11 00:12:56;;;;;;;11.23;3.90;;;20.40;70.80;;;;;;5030733;28;20641;-92
2022/06/11 00:15:24;;;;;;;7.17;2.83;;;20.30;70.70;;;;;;5032409;28;20556;-94
2022/06/11 00:17:56;;;;;;;6.57;2.67;;;20.30;70.70;;;;;;5028230;28;20212;-92
2022/06/11 00:20:28;;;;;;;8.33;3.37;;;20.30;70.90;;;;;;5032697;28;20201;-94
2022/06/11 00:22:59;;;;;;;7.00;2.73;;;20.30;70.90;;;;;;5031781;28;20551;-95
2022/06/11 00:25:27;;;;;;;15.17;5.13;;;20.30;70.50;;;;;;5032981;28;20259;-93
2022/06/11 00:27:55;;;;;;;8.60;3.20;;;20.30;70.40;;;;;;5033076;28;20539;-93
2022/06/11 00:30:23;;;;;;;12.83;4.50;;;20.30;70.40;;;;;;5033593;28;20205;-94
2022/06/11 00:33:06;;;;;;;12.97;4.27;;;20.20;70.10;;;;;;5029716;28;20496;-91
2022/06/11 00:35:36;;;;;;;11.93;4.20;;;20.20;70.30;;;;;;5014411;28;20201;-94
2022/06/11 00:38:06;;;;;;;10.97;3.63;;;20.20;69.80;;;;;;5013799;28;20205;-94
2022/06/11 00:40:35;;;;;;;12.27;3.57;;;20.20;70.00;;;;;;5031998;28;20201;-93
2022/06/11 00:43:06;;;;;;;12.50;4.17;;;20.20;70.00;;;;;;5033488;28;20232;-94
2022/06/11 00:45:36;;;;;;;8.53;2.87;;;20.20;69.80;;;;;;5013779;28;20250;-93
2022/06/11 00:48:12;;;;;;;7.00;3.00;;;20.20;69.60;;;;;;5021565;28;20197;-93
2022/06/11 00:50:46;;;;;;;18.83;5.23;;;20.20;69.70;;;;;;5032801;28;20685;-94
2022/06/11 00:53:42;;;;;;;8.63;2.87;;;20.20;69.60;;;;;;5022170;28;20215;-94
2022/06/11 00:56:17;;;;;;;8.80;3.03;;;20.10;69.30;;;;;;5026894;28;20264;-93
2022/06/11 00:58:46;;;;;;;11.03;3.13;;;20.10;68.70;;;;;;5019439;28;20247;-93
2022/06/11 01:01:30;;;;;;;15.93;4.37;;;20.10;68.80;;;;;;5024590;28;20323;-93
2022/06/11 01:03:59;;;;;;;18.40;5.00;;;20.10;68.70;;;;;;5029234;28;20204;-94
2022/06/11 01:06:35;;;;;;;10.60;3.23;;;20.10;68.60;;;;;;5033981;28;20229;-93
2022/06/11 01:09:12;;;;;;;13.73;3.53;;;20.10;68.40;;;;;;5029934;28;20664;-93
2022/06/11 01:12:05;;;;;;;15.73;4.10;;;20.00;68.20;;;;;;5033590;28;20197;-94
2022/06/11 01:14:44;;;;;;;15.37;3.73;;;20.00;68.30;;;;;;5033370;28;20300;-92
2022/06/11 01:17:25;;;;;;;17.30;4.00;;;20.00;68.10;;;;;;5040495;28;20200;-93
2022/06/11 01:20:16;;;;;;;12.77;4.10;;;20.00;68.00;;;;;;5028225;28;20359;-94
2022/06/11 01:23:26;;;;;;;12.80;4.07;;;20.00;67.80;;;;;;5031778;28;20730;-92
2022/06/11 01:26:07;;;;;;;11.57;3.67;;;20.00;67.70;;;;;;5013054;28;20209;-92
2022/06/11 01:28:50;;;;;;;13.27;4.27;;;19.90;67.50;;;;;;5033204;28;20205;-93
2022/06/11 01:31:26;;;;;;;10.57;3.40;;;19.90;67.40;;;;;;5035387;28;20337;-94
2022/06/11 01:34:03;;;;;;;16.27;5.07;;;19.90;67.20;;;;;;5022444;28;20652;-94
2022/06/11 01:36:35;;;;;;;16.87;4.77;;;19.90;67.30;;;;;;5026989;28;20947;-93
2022/06/11 01:39:13;;;;;;;13.00;3.70;;;19.90;67.20;;;;;;5035298;28;20232;-92
2022/06/11 01:41:47;;;;;;;12.60;4.03;;;19.90;67.30;;;;;;5034667;28;20207;-93
2022/06/11 01:44:20;;;;;;;13.30;4.03;;;19.90;67.10;;;;;;5032900;28;20271;-94
2022/06/11 01:46:52;;;;;;;11.67;3.73;;;19.80;66.90;;;;;;5035769;28;20240;-93
2022/06/11 01:49:43;;;;;;;21.43;5.70;;;19.80;66.70;;;;;;5030723;28;20296;-95
2022/06/11 01:52:28;;;;;;;19.13;6.37;;;19.80;66.80;;;;;;5029932;28;20205;-94
2022/06/11 01:55:04;;;;;;;12.90;4.10;;;19.80;66.80;;;;;;5033129;28;20659;-94
2022/06/11 01:57:49;;;;;;;19.77;6.20;;;19.80;66.60;;;;;;5032302;28;20296;-94
2022/06/11 02:00:21;;;;;;;16.37;4.80;;;19.70;66.30;;;;;;5026049;28;20566;-94
2022/06/11 02:03:09;;;;;;;16.67;4.83;;;19.80;66.50;;;;;;5021475;28;20224;-94
2022/06/11 02:05:52;;;;;;;16.70;4.87;;;19.70;66.10;;;;;;5029051;28;20200;-94
2022/06/11 02:08:29;;;;;;;17.80;5.07;;;19.70;66.10;;;;;;5014926;28;20218;-94
2022/06/11 02:11:05;;;;;;;13.27;3.60;;;19.70;66.10;;;;;;5030640;28;20735;-94
2022/06/11 02:13:41;;;;;;;17.50;4.57;;;19.70;66.10;;;;;;5028948;28;20969;-93
2022/06/11 02:16:13;;;;;;;18.97;5.20;;;19.70;66.10;;;;;;5029525;28;20208;-94
2022/06/11 02:18:47;;;;;;;16.97;4.13;;;19.70;66.10;;;;;;5030650;28;20210;-94
2022/06/11 02:21:19;;;;;;;15.83;4.33;;;19.70;65.80;;;;;;5027979;28;20657;-92
2022/06/11 02:23:52;;;;;;;15.33;4.47;;;19.70;65.70;;;;;;5029315;28;20287;-94
2022/06/11 02:26:27;;;;;;;11.67;3.83;;;19.70;65.80;;;;;;5029554;28;20232;-94
2022/06/11 02:28:58;;;;;;;13.93;4.30;;;19.70;65.60;;;;;;5012063;28;20562;-92
2022/06/11 02:31:30;;;;;;;16.37;4.60;;;19.70;65.50;;;;;;5025858;28;20208;-93
2022/06/11 02:34:05;;;;;;;14.93;4.67;;;19.70;65.50;;;;;;5025043;28;20207;-94
2022/06/11 02:36:47;;;;;;;11.27;3.70;;;19.70;65.40;;;;;;5031227;28;20216;-92
2022/06/11 02:39:15;;;;;;;13.60;3.73;;;19.60;65.30;;;;;;5030460;28;20204;-93
2022/06/11 02:41:46;;;;;;;17.37;4.63;;;19.60;65.50;;;;;;5031265;28;20225;-92
2022/06/11 02:44:14;;;;;;;16.20;4.43;;;19.60;65.40;;;;;;5026739;28;20260;-94
2022/06/11 02:46:43;;;;;;;14.43;4.07;;;19.60;65.60;;;;;;5030336;28;20227;-94
2022/06/11 02:49:18;;;;;;;17.23;4.73;;;19.60;65.40;;;;;;5028554;28;20243;-94
2022/06/11 02:51:47;;;;;;;19.73;4.67;;;19.60;65.40;;;;;;5030191;28;20200;-93
2022/06/11 02:54:15;;;;;;;13.13;3.77;;;19.60;65.80;;;;;;5023350;28;20696;-93
2022/06/11 02:56:47;;;;;;;12.87;3.80;;;19.50;65.70;;;;;;5025733;28;20669;-94
2022/06/11 02:59:16;;;;;;;12.03;3.43;;;19.60;65.50;;;;;;5020449;28;20215;-92
2022/06/11 03:01:44;;;;;;;25.87;7.07;;;19.60;65.50;;;;;;5024255;28;20235;-93
2022/06/11 03:04:14;;;;;;;19.33;5.30;;;19.60;65.40;;;;;;5031791;28;20205;-93
2022/06/11 03:06:43;;;;;;;15.30;3.67;;;19.50;65.60;;;;;;5029545;28;20231;-95
2022/06/11 03:09:13;;;;;;;14.63;3.97;;;19.50;65.40;;;;;;5017830;28;20216;-94
2022/06/11 03:11:41;;;;;;;27.80;7.30;;;19.50;65.20;;;;;;5025198;28;20205;-94
2022/06/11 03:14:08;;;;;;;12.80;4.03;;;19.50;65.30;;;;;;5029150;28;20661;-94
2022/06/11 03:16:41;;;;;;;18.00;4.57;;;19.50;65.50;;;;;;5015390;28;20219;-94
2022/06/11 03:19:10;;;;;;;16.03;4.90;;;19.50;65.60;;;;;;5029499;28;20219;-94
2022/06/11 03:21:39;;;;;;;14.60;3.43;;;19.50;65.50;;;;;;5029186;28;20216;-94
2022/06/11 03:24:07;;;;;;;18.40;4.90;;;19.50;65.70;;;;;;5016929;28;20627;-94
2022/06/11 03:26:35;;;;;;;19.17;5.90;;;19.50;65.60;;;;;;5029497;28;20295;-92
2022/06/11 03:29:08;;;;;;;15.27;3.97;;;19.40;65.30;;;;;;5027807;28;20306;-94
2022/06/11 03:31:36;;;;;;;9.73;3.47;;;19.40;65.40;;;;;;5030742;28;20216;-93
2022/06/11 03:34:05;;;;;;;18.63;4.00;;;19.40;65.40;;;;;;5030426;28;20208;-94
2022/06/11 03:36:33;;;;;;;18.77;4.33;;;19.40;65.40;;;;;;5029135;28;20204;-94
2022/06/11 03:39:04;;;;;;;18.73;5.07;;;19.40;65.40;;;;;;5025119;28;20205;-94
2022/06/11 03:41:33;;;;;;;16.60;4.60;;;19.40;65.40;;;;;;5029363;28;20294;-93
2022/06/11 03:44:02;;;;;;;13.37;4.70;;;19.30;65.50;;;;;;5014218;28;20217;-93
2022/06/11 03:46:29;;;;;;;22.27;5.67;;;19.30;65.60;;;;;;5022160;28;20620;-93
2022/06/11 03:48:57;;;;;;;16.57;4.87;;;19.20;65.60;;;;;;5023359;28;20288;-94
2022/06/11 03:51:25;;;;;;;17.93;4.57;;;19.20;65.70;;;;;;5032666;28;20299;-94
2022/06/11 03:53:52;;;;;;;23.07;5.50;;;19.20;65.80;;;;;;5030087;28;20736;-94
2022/06/11 03:56:21;;;;;;;17.10;5.40;;;19.10;65.80;;;;;;5029962;28;20215;-93
2022/06/11 03:58:55;;;;;;;23.90;6.23;;;19.10;65.90;;;;;;5028210;28;20202;-93
2022/06/11 04:01:23;;;;;;;22.23;6.10;;;19.10;66.20;;;;;;5024497;28;20232;-94
2022/06/11 04:03:53;;;;;;;19.87;5.27;;;19.10;66.20;;;;;;5033136;28;20211;-94
2022/06/11 04:06:25;;;;;;;16.73;4.67;;;19.00;66.30;;;;;;5027860;28;20201;-93
2022/06/11 04:08:54;;;;;;;20.97;4.40;;;19.00;66.30;;;;;;5029105;28;20700;-93
2022/06/11 04:11:24;;;;;;;14.40;4.53;;;19.00;66.50;;;;;;5028583;28;20649;-93
2022/06/11 04:13:55;;;;;;;19.13;4.47;;;18.90;66.50;;;;;;5034049;28;20842;-94
2022/06/11 04:16:36;;;;;;;20.43;6.17;;;18.90;66.80;;;;;;5033829;28;20201;-94
2022/06/11 04:19:06;;;;;;;18.70;5.10;;;18.90;66.80;;;;;;5034047;28;20212;-94
2022/06/11 04:21:40;;;;;;;18.27;5.37;;;18.90;66.80;;;;;;5031822;28;20248;-94
2022/06/11 04:24:08;;;;;;;20.83;5.97;;;18.90;67.00;;;;;;5028957;28;20259;-94
2022/06/11 04:26:42;;;;;;;24.13;6.23;;;18.80;67.00;;;;;;5033306;28;20201;-93
2022/06/11 04:29:12;;;;;;;18.47;5.00;;;18.80;67.30;;;;;;5030948;28;20651;-94
2022/06/11 04:31:39;;;;;;;19.10;5.37;;;18.80;67.30;;;;;;5027676;28;20204;-94
2022/06/11 04:34:08;;;;;;;17.87;4.73;;;18.70;67.20;;;;;;5019128;28;20868;-94
2022/06/11 04:36:36;;;;;;;20.10;4.97;;;18.70;67.30;;;;;;5021503;28;20203;-94
2022/06/11 04:39:08;;;;;;;13.00;4.10;;;18.70;67.60;;;;;;5013898;28;20254;-94
2022/06/11 04:41:37;;;;;;;19.97;5.27;;;18.70;67.90;;;;;;5032038;28;20215;-92
2022/06/11 04:44:07;;;;;;;14.30;4.20;;;18.70;68.00;;;;;;5034281;28;20291;-95
2022/06/11 04:46:35;;;;;;;13.50;3.90;;;18.70;68.10;;;;;;5032124;28;20223;-94
2022/06/11 04:49:05;;;;;;;19.97;4.83;;;18.70;68.30;;;;;;5033931;28;20228;-93
2022/06/11 04:51:33;;;;;;;18.23;4.90;;;18.60;68.40;;;;;;5032435;28;20201;-94
2022/06/11 04:54:00;;;;;;;11.30;3.60;;;18.70;68.50;;;;;;5033351;28;20208;-94
2022/06/11 04:56:30;;;;;;;16.33;4.97;;;18.70;68.50;;;;;;5031777;28;20262;-93
2022/06/11 04:59:00;;;;;;;15.27;4.53;;;18.70;68.90;;;;;;5028367;28;20201;-94
2022/06/11 05:01:27;;;;;;;14.43;4.23;;;18.70;69.10;;;;;;5028233;28;20228;-92
2022/06/11 05:03:56;;;;;;;15.13;4.33;;;18.70;69.00;;;;;;5034184;28;20227;-93
2022/06/11 05:06:39;;;;;;;23.50;6.47;;;18.70;69.00;;;;;;5033144;28;20236;-93
2022/06/11 05:09:06;;;;;;;17.27;4.90;;;18.70;69.30;;;;;;5033330;28;20323;-94
2022/06/11 05:11:40;;;;;;;16.97;5.53;;;18.70;69.20;;;;;;5035441;28;20193;-93
2022/06/11 05:14:09;;;;;;;12.97;3.80;;;18.70;69.80;;;;;;5034719;28;20204;-94
2022/06/11 05:16:44;;;;;;;16.43;4.73;;;18.70;69.50;;;;;;5044335;28;20200;-93
2022/06/11 05:19:13;;;;;;;18.47;6.03;;;18.70;69.70;;;;;;5021928;28;20256;-93
2022/06/11 05:21:44;;;;;;;14.77;4.57;;;18.80;69.90;;;;;;5015072;28;20213;-92
2022/06/11 05:24:12;;;;;;;12.07;3.83;;;18.80;70.10;;;;;;5034133;28;20201;-92
2022/06/11 05:26:45;;;;;;;27.00;8.37;;;18.80;70.10;;;;;;5030846;28;20591;-93
2022/06/11 05:29:21;;;;;;;21.10;5.73;;;18.70;70.40;;;;;;5039531;28;20640;-93
2022/06/11 05:31:49;;;;;;;24.33;6.27;;;18.80;70.70;;;;;;5031890;28;20250;-93
2022/06/11 05:34:17;;;;;;;22.87;5.70;;;18.80;70.50;;;;;;5034675;28;20259;-93
2022/06/11 05:36:47;;;;;;;19.57;5.23;;;18.80;70.60;;;;;;5033473;28;20196;-94
2022/06/11 05:39:17;;;;;;;17.77;4.93;;;18.80;71.00;;;;;;5031842;28;20201;-92
2022/06/11 05:41:47;;;;;;;15.70;4.73;;;18.80;71.10;;;;;;5032788;28;20211;-93
2022/06/11 05:44:16;;;;;;;20.20;5.13;;;18.80;71.10;;;;;;5032556;28;20251;-94
2022/06/11 05:46:45;;;;;;;23.43;6.13;;;18.80;71.30;;;;;;5031928;28;20207;-94
2022/06/11 05:49:17;;;;;;;21.83;5.53;;;18.80;71.40;;;;;;5032682;28;20228;-95
2022/06/11 05:51:49;;;;;;;16.33;4.87;;;18.80;71.70;;;;;;5033390;28;20562;-93
2022/06/11 05:54:21;;;;;;;17.53;5.50;;;18.90;71.80;;;;;;5032788;28;20203;-93
2022/06/11 05:56:50;;;;;;;18.30;5.50;;;18.80;71.90;;;;;;5030723;28;20722;-95
2022/06/11 05:59:39;;;;;;;21.87;7.33;;;18.80;72.00;;;;;;5032058;28;20264;-94
2022/06/11 06:02:14;;;;;;;25.73;6.97;;;18.90;72.70;;;;;;5027821;28;20279;-94
2022/06/11 06:04:52;;;;;;;18.93;5.33;;;18.90;72.80;;;;;;5030986;28;20210;-92
2022/06/11 06:07:25;;;;;;;26.73;7.77;;;18.90;73.00;;;;;;5032003;28;20222;-94
2022/06/11 06:09:52;;;;;;;17.60;5.53;;;18.90;72.90;;;;;;5045498;28;20289;-94
2022/06/11 06:12:22;;;;;;;24.53;7.53;;;18.90;73.00;;;;;;5027494;28;20255;-94
2022/06/11 06:14:51;;;;;;;26.77;7.47;;;19.00;73.90;;;;;;5028993;28;20659;-93
2022/06/11 06:17:18;;;;;;;20.10;6.27;;;19.00;73.70;;;;;;5026752;28;20200;-94
2022/06/11 06:19:46;;;;;;;20.33;6.37;;;19.00;73.40;;;;;;5028712;28;20212;-93
2022/06/11 06:22:14;;;;;;;24.10;6.97;;;19.00;73.80;;;;;;5031241;28;20205;-94
2022/06/11 06:24:47;;;;;;;20.13;6.87;;;19.10;74.00;;;;;;5031458;28;20209;-94
2022/06/11 06:27:14;;;;;;;21.87;5.73;;;19.10;74.20;;;;;;5031100;28;20215;-92
2022/06/11 06:29:45;;;;;;;18.47;5.07;;;19.10;73.80;;;;;;5031362;28;20950;-93
2022/06/11 06:32:14;;;;;;;18.50;6.57;;;19.10;74.10;;;;;;5031868;28;20646;-92
2022/06/11 06:34:41;;;;;;;20.53;6.03;;;19.20;74.20;;;;;;5029366;28;20213;-93
2022/06/11 06:37:15;;;;;;;24.40;7.67;;;19.20;74.10;;;;;;5044155;28;20201;-93
2022/06/11 06:39:42;;;;;;;20.10;6.13;;;19.20;74.30;;;;;;5048998;28;20531;-91
2022/06/11 06:42:25;;;;;;;19.10;5.47;;;19.20;73.80;;;;;;5038019;28;20211;-93
2022/06/11 06:44:56;;;;;;;16.47;5.33;;;19.30;74.90;;;;;;5037576;28;20225;-93
2022/06/11 06:47:28;;;;;;;19.70;6.43;;;19.30;74.30;;;;;;5034372;28;20548;-92
2022/06/11 06:49:58;;;;;;;10.87;5.00;;;19.40;74.10;;;;;;5034284;28;20736;-93
2022/06/11 06:52:26;;;;;;;19.00;5.10;;;19.40;74.10;;;;;;5032655;28;20239;-92
2022/06/11 06:54:55;;;;;;;14.50;4.57;;;19.50;74.20;;;;;;5033440;28;20208;-93
2022/06/11 06:57:23;;;;;;;17.33;5.17;;;19.50;74.40;;;;;;5037838;28;20201;-91
2022/06/11 06:59:50;;;;;;;23.83;6.80;;;19.60;74.30;;;;;;5033007;28;20232;-93
2022/06/11 07:02:24;;;;;;;23.67;7.20;;;19.60;74.10;;;;;;5040702;28;20184;-91
2022/06/11 07:04:53;;;;;;;17.33;5.70;;;19.60;73.90;;;;;;5039882;28;20206;-93
2022/06/11 07:07:20;;;;;;;22.90;6.40;;;19.70;73.80;;;;;;5046391;28;20492;-93
2022/06/11 07:10:11;;;;;;;19.83;6.10;;;19.80;73.70;;;;;;5059192;22;20268;-92
2022/06/11 07:12:47;;;;;;;14.57;5.70;;;19.80;74.00;;;;;;5019929;28;20201;-93
2022/06/11 07:15:17;;;;;;;15.03;5.30;;;19.90;73.50;;;;;;5024501;28;20220;-94
2022/06/11 07:17:49;;;;;;;20.97;6.20;;;20.00;73.00;;;;;;5027548;28;20301;-95
2022/06/11 07:20:26;;;;;;;25.43;6.93;;;20.00;72.60;;;;;;5022044;28;20202;-95
2022/06/11 07:22:58;;;;;;;15.37;5.23;;;20.10;72.60;;;;;;5024764;28;20212;-94
2022/06/11 07:25:28;;;;;;;19.87;6.00;;;20.20;72.70;;;;;;5015094;28;20202;-92
2022/06/11 07:28:02;;;;;;;16.00;4.57;;;20.20;72.80;;;;;;5014919;28;20256;-94
2022/06/11 07:30:44;;;;;;;23.53;7.67;;;20.30;72.60;;;;;;5026045;28;20205;-94
2022/06/11 07:33:20;;;;;;;13.87;4.33;;;20.40;72.50;;;;;;5019484;28;20197;-93
2022/06/11 07:35:50;;;;;;;14.47;5.87;;;20.40;71.60;;;;;;5013109;28;20205;-93
2022/06/11 07:38:19;;;;;;;18.20;6.40;;;20.40;71.60;;;;;;5009996;28;20209;-94
2022/06/11 07:40:46;;;;;;;16.00;5.53;;;20.50;71.70;;;;;;5009684;28;20202;-93
2022/06/11 07:43:15;;;;;;;23.90;6.00;;;20.60;71.30;;;;;;5011113;28;20713;-93
2022/06/11 07:45:44;;;;;;;19.57;5.27;;;20.60;71.00;;;;;;5010284;28;20668;-93
2022/06/11 07:48:13;;;;;;;17.73;6.10;;;20.60;71.00;;;;;;5011513;28;20225;-92
2022/06/11 07:50:42;;;;;;;12.17;4.20;;;20.70;71.10;;;;;;4994730;28;20217;-94
2022/06/11 07:53:12;;;;;;;14.83;5.77;;;20.70;71.40;;;;;;5003611;28;20207;-93
2022/06/11 07:55:44;;;;;;;24.47;5.70;;;20.80;70.70;;;;;;5011649;28;20210;-94
2022/06/11 07:58:15;;;;;;;18.43;5.60;;;20.80;70.70;;;;;;4995707;28;20276;-95
2022/06/11 08:00:46;;;;;;;14.00;4.40;;;20.90;70.50;;;;;;4995049;28;20699;-93
2022/06/11 08:03:13;;;;;;;21.50;4.80;;;21.00;70.10;;;;;;5000788;28;20209;-94
2022/06/11 08:05:41;;;;;;;16.07;5.50;;;21.00;69.80;;;;;;5015587;28;20213;-94
2022/06/11 08:08:10;;;;;;;21.77;5.63;;;21.10;69.70;;;;;;5015243;28;20231;-95
2022/06/11 08:10:41;;;;;;;21.17;6.20;;;21.20;69.00;;;;;;5014897;28;20209;-94
2022/06/11 08:13:09;;;;;;;21.00;5.80;;;21.20;68.30;;;;;;5013635;28;20260;-94
2022/06/11 08:15:38;;;;;;;17.23;5.13;;;21.20;68.00;;;;;;5014494;28;20202;-96
2022/06/11 08:18:06;;;;;;;15.70;5.87;;;21.30;68.20;;;;;;5008852;28;20270;-94
2022/06/11 08:20:36;;;;;;;25.10;7.07;;;21.30;68.70;;;;;;4992698;28;20297;-94
2022/06/11 08:23:03;;;;;;;14.60;4.93;;;21.40;68.20;;;;;;4995057;28;20212;-95
2022/06/11 08:25:32;;;;;;;23.00;6.27;;;21.40;67.50;;;;;;4995147;28;20209;-92
2022/06/11 08:28:01;;;;;;;14.43;4.03;;;21.50;67.40;;;;;;4997439;28;20203;-95
2022/06/11 08:30:30;;;;;;;14.33;3.87;;;21.60;66.90;;;;;;4994857;28;20207;-93
2022/06/11 08:32:59;;;;;;;11.60;4.93;;;21.60;66.90;;;;;;5004512;28;20207;-95
2022/06/11 08:35:36;;;;;;;12.77;4.40;;;21.70;66.00;;;;;;5015635;28;20209;-93
2022/06/11 08:38:05;;;;;;;13.33;4.47;;;21.80;66.60;;;;;;5013712;28;20202;-93
2022/06/11 08:40:38;;;;;;;19.10;5.57;;;21.90;66.90;;;;;;5014418;28;20213;-92
2022/06/11 08:43:27;;;;;;;13.67;4.40;;;22.00;66.10;;;;;;5014356;28;20255;-93
2022/06/11 08:45:59;;;;;;;15.23;4.73;;;22.20;65.20;;;;;;5014714;28;20278;-93
2022/06/11 08:48:40;;;;;;;22.37;6.40;;;22.30;65.80;;;;;;5010051;28;20236;-92
2022/06/11 08:51:18;;;;;;;18.87;6.50;;;22.50;65.30;;;;;;5010552;28;20209;-92
2022/06/11 08:53:46;;;;;;;15.30;5.63;;;22.70;65.10;;;;;;5021318;28;20223;-91
2022/06/11 08:56:20;;;;;;;18.67;5.87;;;22.90;66.00;;;;;;5011503;28;20201;-94
2022/06/11 08:59:24;;;;;;;14.07;5.27;;;23.00;64.30;;;;;;5010254;28;20319;-94
2022/06/11 09:02:04;;;;;;;16.50;5.33;;;23.20;62.80;;;;;;4976011;28;20274;-93
2022/06/11 09:04:55;;;;;;;16.13;5.10;;;23.30;62.10;;;;;;5013895;28;20227;-93
2022/06/11 09:07:37;;;;;;;18.93;6.53;;;23.40;62.30;;;;;;5009581;28;20231;-93
2022/06/11 09:10:24;;;;;;;13.17;3.87;;;23.50;60.90;;;;;;5009342;28;20315;-94
2022/06/11 09:13:22;;;;;;;17.37;4.60;;;23.60;60.90;;;;;;5011998;28;20656;-91
2022/06/11 09:16:09;;;;;;;10.20;3.77;;;23.70;59.00;;;;;;5007481;28;20300;-92
2022/06/11 09:18:56;;;;;;;10.73;3.20;;;23.80;58.00;;;;;;5013241;28;20201;-93
2022/06/11 09:21:53;;;;;;;14.77;4.40;;;23.80;58.40;;;;;;5009729;28;20271;-93
2022/06/11 09:24:49;;;;;;;15.23;5.57;;;23.90;59.40;;;;;;5010111;28;20206;-93
2022/06/11 09:27:39;;;;;;;22.27;6.90;;;23.90;58.70;;;;;;4996354;28;20225;-92
2022/06/11 09:30:11;;;;;;;15.90;4.23;;;24.00;58.90;;;;;;5013325;28;20275;-94
2022/06/11 09:33:04;;;;;;;18.07;4.97;;;24.10;59.10;;;;;;5014405;28;20232;-93
2022/06/11 09:35:47;;;;;;;13.97;5.07;;;24.10;59.00;;;;;;5010736;28;20210;-92
2022/06/11 09:38:30;;;;;;;15.57;5.37;;;24.20;59.50;;;;;;5013403;28;20256;-92
2022/06/11 09:43:39;;;;;;;18.43;5.37;;;24.40;59.40;;;;;;5071813;22;20398;-92
2022/06/11 09:46:17;;;;;;;14.77;4.47;;;24.50;58.90;;;;;;5033740;28;20234;-94
2022/06/11 09:49:00;;;;;;;12.80;4.50;;;24.60;58.30;;;;;;5033234;28;20224;-93
2022/06/11 09:51:37;;;;;;;12.90;4.50;;;24.70;58.00;;;;;;5032398;28;20263;-93
2022/06/11 09:54:50;;;;;;;10.43;4.43;;;24.80;58.30;;;;;;5032944;28;20212;-94
2022/06/11 09:57:35;;;;;;;12.93;4.43;;;24.90;58.10;;;;;;5031663;28;20635;-91
2022/06/11 10:00:25;;;;;;;14.93;5.37;;;25.00;57.80;;;;;;4995604;28;20224;-91
2022/06/11 10:03:02;;;;;;;22.07;6.37;;;25.10;57.40;;;;;;5007736;28;20209;-93
2022/06/11 10:05:44;;;;;;;16.63;5.47;;;25.20;56.60;;;;;;5010123;28;20205;-92
2022/06/11 10:08:17;;;;;;;16.40;5.37;;;25.40;56.30;;;;;;5010937;28;20645;-92
2022/06/11 10:10:48;;;;;;;17.10;5.83;;;25.40;55.80;;;;;;5025158;28;20249;-92
2022/06/11 10:13:36;;;;;;;13.93;5.53;;;25.50;56.60;;;;;;5022106;28;20210;-91
2022/06/11 10:16:13;;;;;;;18.53;4.97;;;25.60;56.30;;;;;;5015714;28;20202;-93
2022/06/11 10:18:41;;;;;;;8.43;2.80;;;25.80;55.60;;;;;;5012968;28;20233;-94
2022/06/11 10:21:18;;;;;;;15.43;4.40;;;25.90;55.70;;;;;;5015428;28;20202;-93
2022/06/11 10:24:12;;;;;;;10.47;3.23;;;26.00;54.30;;;;;;5005327;28;20204;-92
2022/06/11 10:26:48;;;;;;;13.40;3.57;;;26.10;54.00;;;;;;5012197;28;20185;-94
2022/06/11 10:29:21;;;;;;;9.23;2.80;;;26.20;53.10;;;;;;4996730;28;20222;-92
2022/06/11 10:31:54;;;;;;;11.67;4.07;;;26.30;53.60;;;;;;4992738;28;20197;-92
2022/06/11 10:34:24;;;;;;;12.37;4.43;;;26.40;53.20;;;;;;5016103;28;20252;-91
2022/06/11 10:36:58;;;;;;;12.43;3.87;;;26.50;53.70;;;;;;5028810;28;20211;-92
2022/06/11 10:39:30;;;;;;;12.53;3.13;;;26.60;53.40;;;;;;5021034;28;20201;-93
2022/06/11 10:42:04;;;;;;;17.23;5.03;;;26.60;53.20;;;;;;5013298;28;20209;-94
2022/06/11 10:47:54;;;;;;;8.63;2.93;;;26.80;52.00;;;;;;5060520;22;20251;-95
2022/06/11 10:50:24;;;;;;;8.20;3.37;;;26.90;52.30;;;;;;5051957;28;20640;-92
2022/06/11 10:53:03;;;;;;;9.27;3.27;;;26.90;51.90;;;;;;5041142;28;20312;-94
2022/06/11 10:55:36;;;;;;;8.33;3.17;;;27.00;51.40;;;;;;5051134;28;20196;-91
2022/06/11 10:58:25;;;;;;;11.37;5.27;;;27.00;51.40;;;;;;5051325;28;20254;-94
2022/06/11 11:03:59;;;;;;;10.37;4.00;;;27.10;51.50;;;;;;5037729;22;20224;-92
2022/06/11 11:06:34;;;;;;;12.97;3.97;;;27.20;51.60;;;;;;5031739;28;20545;-94
2022/06/11 11:09:12;;;;;;;9.03;3.17;;;27.30;51.30;;;;;;5029907;28;20231;-92
2022/06/11 11:11:46;;;;;;;9.57;4.43;;;27.40;49.20;;;;;;5033317;28;20223;-93
2022/06/11 11:14:18;;;;;;;12.27;3.57;;;27.50;50.00;;;;;;5031823;28;20227;-92
2022/06/11 11:16:55;;;;;;;9.37;3.23;;;27.50;49.70;;;;;;5029842;28;20304;-93
2022/06/11 11:19:25;;;;;;;7.93;3.10;;;27.60;50.40;;;;;;5031668;28;20284;-93
2022/06/11 11:22:15;;;;;;;12.73;4.13;;;27.70;50.00;;;;;;5027994;28;20653;-91
2022/06/11 11:24:56;;;;;;;9.23;2.73;;;27.70;47.80;;;;;;5031352;28;20599;-92
2022/06/11 11:27:43;;;;;;;11.77;3.20;;;27.80;49.20;;;;;;5030602;28;20652;-92
2022/06/11 11:30:26;;;;;;;10.03;3.77;;;27.90;48.30;;;;;;5038190;28;20228;-94
2022/06/11 11:36:20;;;;;;;10.77;3.27;;;28.00;48.60;;;;;;5058010;22;20593;-94
2022/06/11 11:38:59;;;;;;;9.27;3.30;;;27.90;48.20;;;;;;5064445;22;20238;-93
2022/06/11 11:41:49;;;;;;;9.87;3.87;;;27.90;49.00;;;;;;5044210;22;20385;-92
2022/06/11 11:44:19;;;;;;;13.53;3.43;;;28.00;47.90;;;;;;5048523;28;20208;-95
2022/06/11 11:46:51;;;;;;;9.87;3.67;;;28.00;49.50;;;;;;5035014;28;20216;-94
2022/06/11 11:49:23;;;;;;;8.60;3.20;;;28.00;49.50;;;;;;5056298;28;20307;-95
2022/06/11 11:52:03;;;;;;;10.47;3.60;;;28.00;49.40;;;;;;5051793;28;20211;-96
2022/06/11 11:57:17;;;;;;;8.23;2.87;;;28.00;49.10;;;;;;5053786;28;20931;-95
2022/06/11 11:59:56;;;;;;;7.10;2.63;;;28.00;49.00;;;;;;5037514;28;20217;-95
2022/06/11 12:02:31;;;;;;;11.03;3.20;;;27.90;48.50;;;;;;5033238;28;20212;-95
2022/06/11 12:05:17;;;;;;;10.50;3.43;;;27.90;48.30;;;;;;5025305;28;20207;-94
2022/06/11 12:07:47;;;;;;;14.20;4.60;;;27.90;49.20;;;;;;5012279;28;20232;-95
2022/06/11 12:10:30;;;;;;;9.53;3.73;;;27.90;50.40;;;;;;5048483;28;20232;-93
2022/06/11 12:13:00;;;;;;;15.63;4.67;;;27.90;50.00;;;;;;5051486;28;20204;-94
2022/06/11 12:15:31;;;;;;;8.00;3.23;;;28.00;50.50;;;;;;5048541;28;20749;-95
2022/06/11 12:18:04;;;;;;;12.57;4.33;;;28.10;50.70;;;;;;5046588;28;20190;-93
2022/06/11 12:20:39;;;;;;;16.67;5.60;;;28.20;50.90;;;;;;5043265;28;20196;-95
2022/06/11 12:23:18;;;;;;;15.37;4.33;;;28.20;50.30;;;;;;5029138;28;20196;-94
2022/06/11 12:25:50;;;;;;;11.30;3.77;;;28.30;49.80;;;;;;5015310;28;20287;-94
2022/06/11 12:28:26;;;;;;;15.80;5.53;;;28.30;50.10;;;;;;5019636;28;20198;-94
2022/06/11 12:30:56;;;;;;;12.03;4.13;;;28.40;50.00;;;;;;5015853;28;20229;-95
2022/06/11 12:33:24;;;;;;;16.00;4.57;;;28.40;50.60;;;;;;5018339;28;20201;-95
2022/06/11 12:35:58;;;;;;;16.37;5.40;;;28.50;50.70;;;;;;5016811;28;20201;-96
2022/06/11 12:38:39;;;;;;;13.63;3.97;;;28.60;49.60;;;;;;5029250;28;20209;-96
2022/06/11 12:41:26;;;;;;;13.00;5.07;;;28.70;50.00;;;;;;5012944;28;20213;-95
2022/06/11 12:44:22;;;;;;;11.70;3.87;;;28.80;49.20;;;;;;5013569;28;20224;-95
2022/06/11 12:46:53;;;;;;;13.60;4.23;;;29.00;49.10;;;;;;5014302;28;20340;-95
2022/06/11 12:49:29;;;;;;;15.33;4.77;;;29.00;49.70;;;;;;5013120;28;20275;-95
2022/06/11 12:52:12;;;;;;;16.30;4.47;;;29.10;49.30;;;;;;5012896;28;20531;-95
2022/06/11 12:57:52;;;;;;;10.30;4.17;;;29.30;48.40;;;;;;5013849;28;20226;-95
2022/06/11 13:00:40;;;;;;;11.50;3.67;;;29.40;47.30;;;;;;5013783;28;20209;-96
2022/06/11 13:03:32;;;;;;;12.03;3.67;;;29.40;48.00;;;;;;5014455;28;20262;-93
2022/06/11 13:06:24;;;;;;;11.37;4.17;;;29.50;48.00;;;;;;5013101;28;20205;-92
2022/06/11 13:09:03;;;;;;;13.20;5.43;;;29.50;48.80;;;;;;5013466;28;20209;-95
2022/06/11 13:11:47;;;;;;;17.55;5.45;;;29.70;49.00;;;;;;5020089;28;20228;-94
2022/06/11 13:15:02;;;;;;;15.33;4.83;;;29.80;48.40;;;;;;5021887;28;20221;-93
2022/06/11 13:17:51;;;;;;;11.43;4.10;;;30.00;47.70;;;;;;5025959;28;20205;-93
2022/06/11 13:20:23;;;;;;;13.73;4.40;;;30.20;47.50;;;;;;5031643;28;20207;-93
2022/06/11 13:22:58;;;;;;;12.65;5.15;;;30.30;47.30;;;;;;5028645;28;20676;-93
2022/06/11 13:25:35;;;;;;;14.25;5.40;;;30.30;47.10;;;;;;5029148;28;20417;-93
2022/06/11 13:28:21;;;;;;;19.20;6.15;;;30.50;47.50;;;;;;5005795;28;20201;-94
2022/06/11 13:30:59;;;;;;;13.55;4.38;;;30.50;47.10;;;;;;5008918;28;20228;-92
2022/06/11 13:34:21;;;;;;;12.75;4.60;;;30.50;46.80;;;;;;5023950;28;20215;-92